Time;durP1;ratioP1;P1;durP2;ratioP2;P2;SDS_P1;SDS_P2;PMS_P1;PMS_P2;Temp;Humidity;BMP_temperature;BMP_pressure;BME280_temperature;BME280_humidity;BME280_pressure;Samples;Min_cycle;Max_cycle;Signal;HPM_P1;HPM_P2
2021/09/19 00:02:06;;;;;;;2.40;0.82;;;;;;;12.81;45.83;101876.53;5005061;28;20026;-70
2021/09/19 00:04:32;;;;;;;6.60;1.55;;;;;;;12.89;45.68;101879.72;5004512;28;20030;-73
2021/09/19 00:06:57;;;;;;;3.70;0.88;;;;;;;13.11;45.03;101877.22;5008781;28;20035;-73
2021/09/19 00:09:23;;;;;;;4.35;1.20;;;;;;;12.99;45.45;101883.78;4999686;28;20048;-69
2021/09/19 00:11:50;;;;;;;4.20;1.75;;;;;;;12.75;45.92;101879.34;5007793;28;20073;-68
2021/09/19 00:14:16;;;;;;;5.75;1.60;;;;;;;12.84;45.59;101876.41;5003501;28;20046;-70
2021/09/19 00:16:43;;;;;;;5.07;1.17;;;;;;;12.87;45.81;101873.69;5006314;28;20025;-70
2021/09/19 00:19:10;;;;;;;5.18;1.40;;;;;;;12.96;45.50;101878.63;5003951;28;20049;-70
2021/09/19 00:21:36;;;;;;;2.65;1.20;;;;;;;12.80;46.07;101866.94;4999743;28;20069;-70
2021/09/19 00:24:01;;;;;;;3.22;1.10;;;;;;;12.78;45.90;101877.50;5006106;28;20156;-70
2021/09/19 00:26:27;;;;;;;2.47;1.70;;;;;;;12.55;46.39;101878.19;5005709;28;20446;-70
2021/09/19 00:28:52;;;;;;;7.32;1.58;;;;;;;12.58;46.63;101872.00;5003417;28;20509;-70
2021/09/19 00:31:18;;;;;;;3.72;1.50;;;;;;;12.62;46.29;101874.47;5004154;28;20180;-70
2021/09/19 00:33:43;;;;;;;5.90;1.50;;;;;;;12.61;46.47;101872.75;5005556;28;20034;-70
2021/09/19 00:36:09;;;;;;;2.35;1.45;;;;;;;12.47;46.48;101875.84;5005460;28;20042;-70
2021/09/19 00:38:34;;;;;;;5.30;2.03;;;;;;;12.72;46.08;101877.69;5006110;28;20100;-69
2021/09/19 00:41:01;;;;;;;5.53;1.70;;;;;;;12.54;46.47;101880.88;5006997;28;20040;-70
2021/09/19 00:43:26;;;;;;;2.10;0.98;;;;;;;12.59;46.35;101882.44;5005977;28;20026;-70
2021/09/19 00:45:52;;;;;;;3.20;1.85;;;;;;;12.45;46.78;101882.03;5006646;28;20438;-70
2021/09/19 00:48:20;;;;;;;2.42;1.67;;;;;;;12.39;46.77;101876.97;5006843;28;20049;-70
2021/09/19 00:50:45;;;;;;;4.93;1.25;;;;;;;12.34;46.59;101884.16;5005164;28;20075;-70
2021/09/19 00:53:14;;;;;;;3.28;1.67;;;;;;;12.22;47.11;101875.75;5006720;28;20109;-70
2021/09/19 00:55:42;;;;;;;3.92;1.88;;;;;;;12.42;46.38;101874.25;5003054;28;20101;-70
2021/09/19 00:58:13;;;;;;;2.75;1.27;;;;;;;12.34;46.64;101873.66;5008010;28;20029;-73
2021/09/19 01:00:42;;;;;;;2.83;1.08;;;;;;;12.29;46.61;101876.44;5005976;28;20634;-74
2021/09/19 01:03:07;;;;;;;4.47;1.60;;;;;;;12.16;47.02;101873.31;5007473;28;20038;-73
2021/09/19 01:05:33;;;;;;;2.78;1.02;;;;;;;12.19;47.06;101869.75;5004902;28;20095;-73
2021/09/19 01:07:59;;;;;;;6.07;1.48;;;;;;;12.26;46.77;101871.25;4992913;28;20053;-73
2021/09/19 01:10:25;;;;;;;4.28;1.92;;;;;;;12.04;47.05;101871.94;5003751;28;20589;-67
2021/09/19 01:12:54;;;;;;;8.73;1.48;;;;;;;11.85;47.69;101876.84;5005009;28;20048;-71
2021/09/19 01:15:20;;;;;;;6.18;1.65;;;;;;;11.88;47.54;101871.50;5004314;28;20033;-71
2021/09/19 01:17:46;;;;;;;3.15;1.55;;;;;;;11.87;47.63;101872.44;5007400;28;20107;-71
2021/09/19 01:20:18;;;;;;;3.05;1.27;;;;;;;11.91;47.59;101869.72;5005180;28;20124;-71
2021/09/19 01:22:56;;;;;;;3.65;1.65;;;;;;;11.69;48.26;101872.94;5004298;28;20465;-74
2021/09/19 01:25:22;;;;;;;6.60;1.92;;;;;;;11.66;47.93;101876.50;5004561;28;20527;-71
2021/09/19 01:27:47;;;;;;;3.92;1.70;;;;;;;11.60;48.32;101871.44;5004959;28;20065;-72
2021/09/19 01:30:14;;;;;;;2.03;1.27;;;;;;;11.52;48.53;101873.41;5005249;28;20406;-71
2021/09/19 01:32:40;;;;;;;4.13;1.77;;;;;;;11.59;48.48;101871.47;4981986;28;20041;-72
2021/09/19 01:35:07;;;;;;;2.25;1.10;;;;;;;11.49;48.76;101877.91;5004134;28;20049;-70
2021/09/19 01:37:33;;;;;;;6.03;2.03;;;;;;;11.37;48.73;101869.44;4996259;28;20104;-69
2021/09/19 01:39:59;;;;;;;3.75;1.67;;;;;;;11.35;48.68;101876.50;5004429;28;20457;-70
2021/09/19 01:42:27;;;;;;;3.63;1.65;;;;;;;11.54;48.51;101873.38;5002139;28;20029;-70
2021/09/19 01:44:53;;;;;;;7.38;1.90;;;;;;;11.54;48.43;101876.84;5004208;28;20038;-69
2021/09/19 01:47:18;;;;;;;2.90;1.52;;;;;;;11.49;48.28;101872.66;5001511;28;20029;-69
2021/09/19 01:49:49;;;;;;;3.47;0.98;;;;;;;11.40;48.61;101874.63;5004172;28;20046;-69
2021/09/19 01:52:19;;;;;;;4.45;1.27;;;;;;;11.44;47.95;101875.38;4978696;28;20061;-69
2021/09/19 01:54:45;;;;;;;3.35;1.80;;;;;;;11.42;48.23;101872.81;5003572;28;20096;-69
2021/09/19 01:57:17;;;;;;;5.15;1.13;;;;;;;11.48;47.91;101876.16;5003236;28;20037;-69
2021/09/19 01:59:43;;;;;;;;;;;;;;;11.41;47.87;101871.09;5003293;28;20964;-70
2021/09/19 02:02:08;;;;;;;3.65;1.45;;;;;;;11.35;48.36;101876.50;5002893;28;20016;-69
2021/09/19 02:04:38;;;;;;;3.08;1.13;;;;;;;11.32;47.89;101870.50;5006166;28;20041;-70
2021/09/19 02:07:04;;;;;;;6.40;1.70;;;;;;;11.46;47.60;101869.22;5007277;28;20041;-69
2021/09/19 02:09:29;;;;;;;2.35;1.33;;;;;;;11.28;47.99;101874.09;5008704;28;20399;-69
2021/09/19 02:11:57;;;;;;;4.35;1.85;;;;;;;11.23;48.27;101874.22;5006660;28;20021;-69
2021/09/19 02:14:23;;;;;;;4.60;1.05;;;;;;;11.19;47.90;101880.44;5007275;28;20048;-70
2021/09/19 02:16:48;;;;;;;3.03;1.35;;;;;;;11.32;47.65;101873.09;5008334;28;20041;-70
2021/09/19 02:19:14;;;;;;;4.35;1.63;;;;;;;11.29;47.58;101871.44;5006349;28;20117;-69
2021/09/19 02:21:39;;;;;;;5.03;1.77;;;;;;;11.29;47.67;101862.75;5008314;28;20042;-71
2021/09/19 02:24:05;;;;;;;3.13;0.98;;;;;;;11.22;47.82;101864.66;5007709;28;20041;-72
2021/09/19 02:26:30;;;;;;;5.25;2.00;;;;;;;11.18;48.38;101857.78;5008437;28;20084;-71
2021/09/19 02:28:56;;;;;;;4.30;2.13;;;;;;;11.22;47.99;101862.91;5007168;28;20057;-71
2021/09/19 02:31:21;;;;;;;4.32;1.88;;;;;;;11.15;48.12;101857.84;5008133;28;20045;-72
2021/09/19 02:33:47;;;;;;;5.18;1.63;;;;;;;11.13;48.47;101859.66;5006590;28;20034;-72
2021/09/19 02:36:12;;;;;;;6.05;1.70;;;;;;;11.23;47.81;101861.13;5006580;28;20038;-73
2021/09/19 02:38:37;;;;;;;2.78;1.35;;;;;;;11.21;48.31;101862.94;5021338;28;20066;-72
2021/09/19 02:41:03;;;;;;;2.35;1.40;;;;;;;11.28;47.67;101851.38;5005345;28;20132;-72
2021/09/19 02:43:28;;;;;;;8.60;1.42;;;;;;;11.22;48.07;101859.44;5006692;28;20030;-70
2021/09/19 02:45:54;;;;;;;3.22;2.05;;;;;;;11.28;47.92;101848.78;5007617;28;20030;-69
2021/09/19 02:48:20;;;;;;;5.80;1.70;;;;;;;11.37;47.65;101853.75;5007887;28;20057;-71
2021/09/19 02:50:46;;;;;;;4.18;2.25;;;;;;;11.44;47.42;101850.09;5005582;28;20508;-70
2021/09/19 02:53:11;;;;;;;3.40;1.25;;;;;;;11.54;47.74;101850.66;5006336;28;20030;-70
2021/09/19 02:55:37;;;;;;;6.45;1.67;;;;;;;11.43;47.44;101853.59;5005692;28;20042;-70
2021/09/19 02:58:02;;;;;;;2.70;1.02;;;;;;;11.47;47.60;101849.13;5006821;28;20079;-70
2021/09/19 03:00:30;;;;;;;5.22;1.60;;;;;;;11.56;47.50;101855.88;5006646;28;20136;-71
2021/09/19 03:02:55;;;;;;;3.78;1.65;;;;;;;11.52;47.49;101851.63;4999928;28;20586;-70
2021/09/19 03:05:21;;;;;;;2.03;1.00;;;;;;;11.67;47.57;101849.41;5005740;28;20048;-70
2021/09/19 03:07:47;;;;;;;4.78;1.48;;;;;;;11.72;47.27;101851.91;5008219;28;20084;-70
2021/09/19 03:10:14;;;;;;;6.25;1.60;;;;;;;11.77;47.13;101852.63;4999814;28;20473;-70
2021/09/19 03:12:40;;;;;;;3.88;1.60;;;;;;;11.76;46.83;101853.53;5007098;28;20037;-70
2021/09/19 03:15:07;;;;;;;4.80;1.35;;;;;;;11.71;47.08;101847.56;5005923;28;20669;-71
2021/09/19 03:17:32;;;;;;;4.30;1.70;;;;;;;11.72;47.33;101862.38;5007459;28;20064;-71
2021/09/19 03:19:58;;;;;;;4.30;1.27;;;;;;;11.80;47.00;101852.56;5006146;28;20065;-70
2021/09/19 03:22:23;;;;;;;3.22;1.20;;;;;;;11.74;46.81;101860.56;5004505;28;20037;-70
2021/09/19 03:24:49;;;;;;;4.13;1.60;;;;;;;11.78;46.75;101854.38;5007569;28;20045;-72
2021/09/19 03:27:14;;;;;;;2.97;1.45;;;;;;;11.68;47.23;101852.88;5005343;28;20093;-72
2021/09/19 03:29:40;;;;;;;5.47;2.25;;;;;;;11.48;47.35;101852.59;5007298;28;20096;-71
2021/09/19 03:32:06;;;;;;;6.10;1.92;;;;;;;11.44;47.67;101851.81;5007106;28;20056;-70
2021/09/19 03:34:34;;;;;;;2.97;1.27;;;;;;;11.62;47.16;101855.66;5006025;28;20041;-71
2021/09/19 03:37:00;;;;;;;4.57;1.92;;;;;;;11.42;47.32;101856.25;5005958;28;20038;-71
2021/09/19 03:39:26;;;;;;;4.50;1.48;;;;;;;11.53;47.31;101862.06;5004283;28;20073;-70
2021/09/19 03:41:52;;;;;;;3.58;1.60;;;;;;;11.50;47.08;101863.88;5006152;28;20112;-70
2021/09/19 03:44:17;;;;;;;3.05;1.65;;;;;;;11.51;47.16;101857.75;5005643;28;20065;-69
2021/09/19 03:46:42;;;;;;;3.83;1.85;;;;;;;11.65;46.74;101852.97;5005273;28;20042;-70
2021/09/19 03:49:10;;;;;;;4.78;1.45;;;;;;;11.64;46.47;101859.09;5003988;28;20095;-71
2021/09/19 03:51:36;;;;;;;5.00;1.63;;;;;;;11.57;47.32;101849.72;5005817;28;21513;-69
2021/09/19 03:54:02;;;;;;;7.00;2.17;;;;;;;11.63;46.66;101849.56;5005787;28;20554;-69
2021/09/19 03:56:28;;;;;;;4.10;1.85;;;;;;;11.46;47.26;101848.28;5004627;28;20029;-70
2021/09/19 03:58:53;;;;;;;2.72;0.98;;;;;;;11.50;47.25;101848.19;5004710;28;20436;-70
2021/09/19 04:01:19;;;;;;;4.95;1.90;;;;;;;11.42;47.40;101854.50;5004801;28;20049;-70
2021/09/19 04:03:44;;;;;;;5.63;1.05;;;;;;;11.41;47.04;101855.38;5006710;28;20552;-70
2021/09/19 04:06:10;;;;;;;2.78;1.25;;;;;;;11.34;47.30;101853.84;5004143;28;20037;-71
2021/09/19 04:08:35;;;;;;;4.40;1.88;;;;;;;11.38;47.22;101842.41;5005274;28;20044;-71
2021/09/19 04:11:00;;;;;;;5.72;1.52;;;;;;;11.29;47.41;101849.66;5005569;28;20037;-71
2021/09/19 04:13:26;;;;;;;3.38;1.50;;;;;;;11.39;46.79;101843.25;4996723;28;20038;-72
2021/09/19 04:15:52;;;;;;;2.80;1.45;;;;;;;11.37;47.07;101848.50;5004632;28;20030;-71
2021/09/19 04:18:17;;;;;;;3.08;1.52;;;;;;;11.30;47.15;101840.88;5005635;28;20695;-72
2021/09/19 04:20:44;;;;;;;4.68;1.92;;;;;;;11.14;47.40;101838.69;4992568;28;20064;-72
2021/09/19 04:23:10;;;;;;;5.45;1.38;;;;;;;11.10;47.77;101844.03;5003705;28;20034;-71
2021/09/19 04:25:35;;;;;;;6.00;1.10;;;;;;;11.11;47.35;101851.00;5005531;28;20091;-71
2021/09/19 04:28:02;;;;;;;5.35;1.85;;;;;;;11.01;47.47;101846.00;5004174;28;20406;-72
2021/09/19 04:30:27;;;;;;;4.55;1.15;;;;;;;11.07;47.55;101851.97;5005820;28;20136;-76
2021/09/19 04:32:53;;;;;;;3.67;1.38;;;;;;;11.02;47.44;101846.88;4991916;28;20116;-76
2021/09/19 04:35:18;;;;;;;3.97;1.05;;;;;;;11.04;47.22;101848.56;5004669;28;20045;-71
2021/09/19 04:37:44;;;;;;;3.03;1.35;;;;;;;11.10;47.33;101857.13;5006495;28;20041;-73
2021/09/19 04:40:10;;;;;;;3.58;1.77;;;;;;;11.00;47.38;101849.53;5005999;28;20053;-76
2021/09/19 04:42:36;;;;;;;3.28;1.58;;;;;;;10.99;47.56;101847.78;5004802;28;20045;-73
2021/09/19 04:45:02;;;;;;;2.45;1.00;;;;;;;10.83;48.10;101854.31;5005277;28;20121;-69
2021/09/19 04:47:27;;;;;;;2.65;1.33;;;;;;;10.81;48.05;101843.91;4994606;28;20044;-69
2021/09/19 04:49:53;;;;;;;4.20;1.60;;;;;;;10.61;48.10;101841.75;5004525;28;20591;-74
2021/09/19 04:52:18;;;;;;;2.72;1.02;;;;;;;10.78;47.65;101840.50;5007293;28;20050;-74
2021/09/19 04:54:44;;;;;;;2.78;1.25;;;;;;;10.65;47.99;101845.16;5003780;28;20033;-72
2021/09/19 04:57:09;;;;;;;3.75;1.65;;;;;;;10.63;48.12;101841.72;5006167;28;20414;-74
2021/09/19 04:59:35;;;;;;;3.95;1.50;;;;;;;10.57;48.41;101845.34;5005516;28;20057;-75
2021/09/19 05:02:02;;;;;;;2.83;1.58;;;;;;;10.43;48.86;101832.59;5006275;28;20048;-74
2021/09/19 05:04:28;;;;;;;3.38;1.42;;;;;;;10.40;49.01;101837.91;5004575;28;20763;-73
2021/09/19 05:06:53;;;;;;;3.67;1.88;;;;;;;10.54;48.61;101836.72;5005614;28;20101;-74
2021/09/19 05:09:19;;;;;;;2.53;1.10;;;;;;;10.46;48.45;101831.69;5003664;28;20026;-74
2021/09/19 05:11:45;;;;;;;4.25;1.67;;;;;;;10.54;48.63;101834.97;4995697;28;20087;-73
2021/09/19 05:14:10;;;;;;;6.53;1.50;;;;;;;10.55;48.17;101838.44;5005310;28;20061;-74
2021/09/19 05:16:36;;;;;;;4.72;1.13;;;;;;;10.53;48.32;101838.47;4988550;28;20790;-73
2021/09/19 05:19:01;;;;;;;3.90;1.50;;;;;;;10.33;48.60;101836.34;5004424;28;20687;-75
2021/09/19 05:21:27;;;;;;;3.95;1.70;;;;;;;10.34;48.60;101834.59;5004038;28;20033;-74
2021/09/19 05:23:52;;;;;;;2.63;0.98;;;;;;;10.42;48.40;101840.50;5005117;28;20481;-74
2021/09/19 05:26:18;;;;;;;5.20;1.20;;;;;;;10.49;48.28;101841.22;4994692;28;20038;-74
2021/09/19 05:28:43;;;;;;;4.22;1.40;;;;;;;10.56;47.83;101843.63;5004356;28;20041;-73
2021/09/19 05:31:09;;;;;;;4.63;1.60;;;;;;;10.49;47.98;101835.97;5002907;28;20037;-72
2021/09/19 05:33:34;;;;;;;3.30;1.40;;;;;;;10.44;47.93;101849.16;5004696;28;21033;-73
2021/09/19 05:36:00;;;;;;;3.30;1.20;;;;;;;10.49;48.23;101844.69;5006018;28;20034;-73
2021/09/19 05:38:25;;;;;;;4.75;1.58;;;;;;;10.61;47.59;101846.97;4987258;28;20049;-73
2021/09/19 05:40:51;;;;;;;2.97;0.98;;;;;;;10.59;47.96;101838.34;5003484;28;20037;-73
2021/09/19 05:43:16;;;;;;;2.47;0.90;;;;;;;10.43;48.12;101847.44;5004086;28;20041;-73
2021/09/19 05:45:42;;;;;;;2.58;1.20;;;;;;;10.22;48.25;101839.19;5022032;28;20030;-73
2021/09/19 05:48:07;;;;;;;3.90;1.50;;;;;;;10.42;48.13;101843.97;5004228;28;20041;-73
2021/09/19 05:50:33;;;;;;;2.67;1.13;;;;;;;10.38;48.21;101842.31;5005354;28;20120;-72
2021/09/19 05:52:59;;;;;;;7.07;1.33;;;;;;;10.41;47.84;101846.59;5004626;28;20034;-73
2021/09/19 05:55:24;;;;;;;4.97;1.45;;;;;;;10.48;47.91;101837.75;5005047;28;20426;-73
2021/09/19 05:57:50;;;;;;;4.68;1.73;;;;;;;10.55;47.41;101847.16;5010436;28;20034;-73
2021/09/19 06:00:16;;;;;;;2.70;1.10;;;;;;;10.60;47.53;101850.50;5004424;28;20049;-73
2021/09/19 06:02:42;;;;;;;4.80;1.48;;;;;;;10.56;47.52;101846.25;5003527;28;20033;-70
2021/09/19 06:05:08;;;;;;;4.03;1.08;;;;;;;10.69;47.42;101856.41;5003964;28;20030;-70
2021/09/19 06:07:33;;;;;;;6.22;1.75;;;;;;;10.69;47.47;101854.66;5003289;28;20029;-70
2021/09/19 06:09:59;;;;;;;6.20;1.35;;;;;;;10.61;47.99;101851.34;5004177;28;20566;-71
2021/09/19 06:12:24;;;;;;;2.70;1.20;;;;;;;10.81;47.37;101854.34;5004916;28;20044;-71
2021/09/19 06:14:50;;;;;;;1.88;0.95;;;;;;;10.62;48.06;101848.72;5004233;28;20105;-70
2021/09/19 06:17:18;;;;;;;7.63;1.58;;;;;;;10.68;48.02;101842.44;5003820;28;20041;-70
2021/09/19 06:19:44;;;;;;;3.55;1.65;;;;;;;10.90;48.10;101841.94;5005078;28;20034;-71
2021/09/19 06:22:09;;;;;;;2.50;1.45;;;;;;;10.87;47.78;101848.13;5030219;28;20120;-70
2021/09/19 06:24:35;;;;;;;3.13;1.02;;;;;;;11.05;47.44;101846.78;5025289;28;20242;-68
2021/09/19 06:27:01;;;;;;;2.17;0.93;;;;;;;11.30;46.86;101843.50;5027961;28;20568;-70
2021/09/19 06:29:28;;;;;;;4.95;1.20;;;;;;;11.44;46.72;101842.22;5018397;28;20060;-70
2021/09/19 06:31:54;;;;;;;4.50;1.33;;;;;;;11.34;47.00;101843.38;5015917;28;20029;-70
2021/09/19 06:34:20;;;;;;;2.63;1.58;;;;;;;11.54;46.44;101837.56;5005972;28;20048;-69
2021/09/19 06:36:45;;;;;;;5.82;1.40;;;;;;;11.78;46.14;101833.41;5004742;28;20465;-68
2021/09/19 06:39:11;;;;;;;3.28;1.00;;;;;;;11.85;45.90;101841.94;5018586;28;20126;-69
2021/09/19 06:41:37;;;;;;;3.67;1.95;;;;;;;11.90;46.13;101841.81;4998988;28;20050;-72
2021/09/19 06:44:02;;;;;;;3.17;1.05;;;;;;;12.32;45.01;101833.53;5002238;28;20026;-69
2021/09/19 06:46:31;;;;;;;4.65;1.30;;;;;;;12.33;45.14;101836.06;5001144;28;20518;-69
2021/09/19 06:48:58;;;;;;;7.72;1.55;;;;;;;12.35;45.00;101838.66;5002885;28;20034;-69
2021/09/19 06:51:23;;;;;;;3.63;1.15;;;;;;;12.14;45.25;101841.06;5005766;28;20037;-69
2021/09/19 06:53:49;;;;;;;2.90;1.20;;;;;;;12.61;44.33;101833.41;5007235;28;20049;-69
2021/09/19 06:56:14;;;;;;;4.50;1.60;;;;;;;12.69;44.08;101844.56;5005751;28;20430;-69
2021/09/19 06:58:40;;;;;;;5.25;2.03;;;;;;;12.51;44.34;101839.88;5006168;28;20030;-69
2021/09/19 07:01:07;;;;;;;2.42;1.17;;;;;;;12.50;44.77;101836.38;4998597;28;20050;-71
2021/09/19 07:03:33;;;;;;;4.40;1.30;;;;;;;12.90;43.70;101848.19;5006077;28;20068;-70
2021/09/19 07:05:59;;;;;;;5.88;1.80;;;;;;;13.27;42.96;101836.41;5007314;28;20113;-70
2021/09/19 07:08:24;;;;;;;5.55;1.35;;;;;;;13.38;42.67;101840.41;5005920;28;20458;-69
2021/09/19 07:10:50;;;;;;;5.28;1.48;;;;;;;13.25;42.72;101842.63;5005449;28;20084;-70
2021/09/19 07:13:15;;;;;;;8.30;1.45;;;;;;;13.31;42.42;101848.50;5020697;28;20060;-70
2021/09/19 07:15:43;;;;;;;4.00;1.20;;;;;;;13.85;41.54;101846.56;5006369;28;20057;-68
2021/09/19 07:18:10;;;;;;;4.30;0.95;;;;;;;14.05;40.77;101851.00;5005908;28;20052;-69
2021/09/19 07:20:36;;;;;;;3.85;1.33;;;;;;;14.24;40.68;101848.53;5005678;28;20493;-69
2021/09/19 07:23:02;;;;;;;3.88;0.95;;;;;;;14.79;39.12;101847.19;5005665;28;20037;-70
2021/09/19 07:25:27;;;;;;;3.13;1.20;;;;;;;15.69;37.38;101845.84;5004731;28;20029;-70
2021/09/19 07:27:53;;;;;;;2.80;1.30;;;;;;;15.99;35.93;101847.97;5005792;28;20335;-70
2021/09/19 07:30:18;;;;;;;3.97;1.65;;;;;;;16.41;35.98;101839.78;5005756;28;20045;-70
2021/09/19 07:32:44;;;;;;;6.65;1.35;;;;;;;18.47;32.86;101849.09;5005815;28;20163;-70
2021/09/19 07:35:10;;;;;;;2.40;1.45;;;;;;;19.29;30.55;101847.75;5006532;28;20060;-69
2021/09/19 07:37:37;;;;;;;4.38;1.92;;;;;;;19.92;28.93;101846.47;5005701;28;20070;-70
2021/09/19 07:40:03;;;;;;;3.00;0.70;;;;;;;19.56;29.73;101855.81;5006330;28;20030;-70
2021/09/19 07:42:29;;;;;;;4.03;1.05;;;;;;;18.96;31.37;101863.91;5004986;28;20040;-70
2021/09/19 07:44:55;;;;;;;4.47;0.95;;;;;;;18.30;32.26;101863.31;5003374;28;20079;-71
2021/09/19 07:47:21;;;;;;;1.58;0.90;;;;;;;17.58;33.42;101865.53;5003691;28;20057;-69
2021/09/19 07:49:47;;;;;;;3.58;1.33;;;;;;;16.69;34.62;101870.09;5003373;28;20038;-70
2021/09/19 07:52:15;;;;;;;5.22;1.25;;;;;;;15.65;36.63;101869.78;5004811;28;20048;-70
2021/09/19 07:54:41;;;;;;;5.15;1.65;;;;;;;15.23;37.60;101870.78;5002788;28;20038;-71
2021/09/19 07:57:07;;;;;;;2.60;1.65;;;;;;;14.74;38.67;101871.06;5004163;28;20022;-70
2021/09/19 07:59:32;;;;;;;6.72;2.28;;;;;;;14.77;39.02;101871.81;5003459;28;20034;-70
2021/09/19 08:01:58;;;;;;;3.70;1.15;;;;;;;14.63;39.57;101884.66;5002892;28;20686;-70
2021/09/19 08:04:25;;;;;;;10.15;3.58;;;;;;;14.52;39.90;101879.88;5003132;28;20033;-70
2021/09/19 08:06:51;;;;;;;3.10;1.10;;;;;;;14.24;40.23;101879.22;4982686;28;20710;-72
2021/09/19 08:09:16;;;;;;;3.15;1.55;;;;;;;14.38;40.43;101876.91;5004351;28;20034;-70
2021/09/19 08:11:42;;;;;;;3.90;1.77;;;;;;;14.24;40.07;101877.44;5003339;28;20038;-69
2021/09/19 08:14:07;;;;;;;3.50;1.17;;;;;;;13.91;40.55;101885.72;5003855;28;20092;-70
2021/09/19 08:16:38;;;;;;;4.95;1.40;;;;;;;14.23;40.64;101885.38;5003023;28;20057;-70
2021/09/19 08:19:05;;;;;;;3.90;1.63;;;;;;;13.80;41.21;101889.69;5002325;28;20030;-70
2021/09/19 08:21:31;;;;;;;10.35;1.65;;;;;;;14.05;41.38;101884.34;5000816;28;20034;-69
2021/09/19 08:23:56;;;;;;;5.05;1.60;;;;;;;14.24;40.56;101882.72;4993680;28;20060;-70
2021/09/19 08:26:22;;;;;;;3.17;1.27;;;;;;;14.18;40.53;101889.97;5000359;28;20599;-70
2021/09/19 08:28:48;;;;;;;3.35;1.42;;;;;;;14.18;40.46;101893.47;4996178;28;20080;-70
2021/09/19 08:31:13;;;;;;;3.88;1.08;;;;;;;13.91;41.35;101898.00;5000384;28;20479;-70
2021/09/19 08:33:39;;;;;;;3.22;1.20;;;;;;;13.84;41.40;101893.91;5000947;28;20080;-69
2021/09/19 08:36:05;;;;;;;3.20;1.42;;;;;;;13.93;41.39;101897.03;5000309;28;20022;-69
2021/09/19 08:38:30;;;;;;;5.32;1.58;;;;;;;14.15;41.15;101897.06;4999298;28;20048;-69
2021/09/19 08:40:56;;;;;;;2.63;1.10;;;;;;;13.82;41.36;101896.59;4999342;28;20030;-69
2021/09/19 08:43:21;;;;;;;7.80;1.30;;;;;;;13.99;41.27;101889.84;4999572;28;20160;-69
2021/09/19 08:45:49;;;;;;;3.90;1.60;;;;;;;14.29;40.82;101890.41;5015870;28;20454;-70
2021/09/19 08:48:22;;;;;;;4.40;1.63;;;;;;;14.19;41.21;101900.44;5000180;28;20370;-70
2021/09/19 08:50:53;;;;;;;2.22;1.00;;;;;;;14.02;40.86;101908.13;5001434;28;20534;-70
2021/09/19 08:53:20;;;;;;;2.30;1.00;;;;;;;14.05;40.78;101902.75;4999519;28;20037;-70
2021/09/19 08:55:46;;;;;;;2.40;0.70;;;;;;;14.05;39.94;101905.38;5001989;28;20517;-71
2021/09/19 08:58:12;;;;;;;4.05;1.48;;;;;;;13.80;40.70;101908.91;4999402;28;20153;-70
2021/09/19 09:00:42;;;;;;;7.10;1.13;;;;;;;13.76;40.65;101912.56;4991642;28;20029;-70
2021/09/19 09:03:12;;;;;;;5.20;1.25;;;;;;;13.90;39.90;101915.56;4999548;28;20558;-71
2021/09/19 09:05:39;;;;;;;2.60;1.02;;;;;;;13.62;40.11;101920.13;5004091;28;20042;-70
2021/09/19 09:08:07;;;;;;;5.15;1.08;;;;;;;14.05;40.04;101908.00;5002269;28;20061;-70
2021/09/19 09:10:41;;;;;;;2.00;1.00;;;;;;;14.40;39.55;101909.25;4994032;28;20104;-70
2021/09/19 09:13:16;;;;;;;3.53;1.08;;;;;;;14.49;39.09;101905.44;5001105;28;20533;-70
2021/09/19 09:15:45;;;;;;;4.80;1.13;;;;;;;14.46;39.13;101909.06;5001297;28;20565;-69
2021/09/19 09:18:33;;;;;;;2.50;1.08;;;;;;;14.74;39.78;101908.75;5000428;28;20037;-70
2021/09/19 09:21:01;;;;;;;5.22;0.85;;;;;;;14.95;38.63;101906.19;4999973;28;20461;-70
2021/09/19 09:23:32;;;;;;;3.97;1.13;;;;;;;15.04;37.67;101913.69;5001597;28;20053;-70
2021/09/19 09:26:16;;;;;;;3.22;0.93;;;;;;;14.97;38.50;101920.13;4998607;28;20076;-70
2021/09/19 09:28:44;;;;;;;1.98;0.88;;;;;;;15.28;38.43;101914.44;4992032;28;20103;-70
2021/09/19 09:31:11;;;;;;;2.55;1.27;;;;;;;15.17;37.74;101917.50;5000074;28;20048;-71
2021/09/19 09:33:36;;;;;;;2.28;0.93;;;;;;;15.22;38.08;101909.44;5000126;28;20029;-70
2021/09/19 09:36:08;;;;;;;3.22;1.00;;;;;;;15.37;37.92;101908.78;5013826;28;20442;-71
2021/09/19 09:38:37;;;;;;;1.90;1.10;;;;;;;15.29;37.34;101910.03;5000318;28;20053;-70
2021/09/19 09:41:05;;;;;;;2.65;1.35;;;;;;;15.20;37.52;101899.88;5002081;28;20123;-70
2021/09/19 09:43:31;;;;;;;2.35;1.00;;;;;;;15.41;37.60;101898.94;5000336;28;20034;-70
2021/09/19 09:46:08;;;;;;;2.40;1.25;;;;;;;15.70;37.19;101896.78;4999832;28;20033;-69
2021/09/19 09:48:40;;;;;;;2.15;0.80;;;;;;;15.49;36.95;101896.84;4999451;28;20034;-69
2021/09/19 09:51:20;;;;;;;2.50;1.02;;;;;;;15.51;37.11;101904.69;4998068;28;20391;-69
2021/09/19 09:53:53;;;;;;;4.15;1.13;;;;;;;15.48;36.86;101895.13;5001885;28;20166;-69
2021/09/19 09:56:19;;;;;;;2.35;1.30;;;;;;;15.79;36.31;101888.44;4999531;28;20510;-69
2021/09/19 09:58:45;;;;;;;2.97;1.02;;;;;;;15.67;36.35;101894.28;5000555;28;20052;-67
2021/09/19 10:01:11;;;;;;;2.78;1.00;;;;;;;15.70;36.13;101894.16;4999383;28;20566;-69
2021/09/19 10:03:37;;;;;;;2.40;0.88;;;;;;;16.24;35.75;101894.31;4998850;28;20057;-68
2021/09/19 10:06:02;;;;;;;1.77;0.88;;;;;;;16.29;34.79;101894.97;5000523;28;20121;-68
2021/09/19 10:08:29;;;;;;;5.28;0.85;;;;;;;16.06;35.12;101888.13;5000025;28;20138;-68
2021/09/19 10:10:57;;;;;;;3.58;0.88;;;;;;;15.72;36.25;101892.28;4999641;28;23259;-69
2021/09/19 10:13:23;;;;;;;3.78;1.15;;;;;;;15.92;35.71;101900.13;5015180;28;20096;-69
2021/09/19 10:15:48;;;;;;;3.22;0.95;;;;;;;16.42;34.46;101889.00;4999975;28;20025;-69
2021/09/19 10:18:17;;;;;;;2.47;0.90;;;;;;;16.58;34.22;101891.75;5002044;28;20554;-71
2021/09/19 10:20:46;;;;;;;2.05;0.70;;;;;;;16.39;34.08;101889.13;5000202;28;20034;-70
2021/09/19 10:23:19;;;;;;;2.17;0.60;;;;;;;16.58;33.78;101898.81;5000487;28;20096;-70
2021/09/19 10:25:55;;;;;;;2.60;0.60;;;;;;;16.71;34.68;101892.00;5003096;28;20881;-69
2021/09/19 10:28:38;;;;;;;2.55;1.10;;;;;;;16.54;34.69;101886.69;4996237;28;20405;-70
2021/09/19 10:31:19;;;;;;;3.80;0.80;;;;;;;16.31;33.84;101891.31;4996193;28;20036;-69
2021/09/19 10:33:49;;;;;;;1.98;0.77;;;;;;;15.89;34.78;101897.66;5004348;28;20030;-69
2021/09/19 10:36:23;;;;;;;2.35;1.33;;;;;;;16.05;35.12;101887.28;4995031;28;20040;-69
2021/09/19 10:38:49;;;;;;;5.85;1.30;;;;;;;15.83;35.36;101895.28;5000680;28;20042;-70
2021/09/19 10:41:20;;;;;;;4.07;0.73;;;;;;;15.70;35.50;101883.59;5001803;28;20049;-70
2021/09/19 10:43:59;;;;;;;2.38;1.10;;;;;;;15.64;36.01;101882.13;5003844;28;20080;-70
2021/09/19 10:46:34;;;;;;;2.50;1.02;;;;;;;15.73;36.38;101888.75;5004894;28;20060;-70
2021/09/19 10:49:11;;;;;;;4.45;0.90;;;;;;;15.74;36.61;101875.47;5003036;28;20037;-71
2021/09/19 10:51:55;;;;;;;2.55;0.98;;;;;;;15.98;36.77;101884.03;5003496;28;20037;-69
2021/09/19 10:54:43;;;;;;;1.98;0.95;;;;;;;15.43;36.28;101886.56;4994233;28;20034;-69
2021/09/19 10:57:29;;;;;;;4.68;0.98;;;;;;;14.83;37.17;101886.47;5003509;28;20642;-69
2021/09/19 11:00:13;;;;;;;3.00;0.77;;;;;;;15.05;37.17;101888.22;5003393;28;20045;-70
2021/09/19 11:02:40;;;;;;;2.80;1.02;;;;;;;15.43;36.93;101896.25;5000595;28;20096;-70
2021/09/19 11:05:27;;;;;;;1.65;0.47;;;;;;;15.20;36.74;101889.34;5003922;28;20595;-69
2021/09/19 11:08:08;;;;;;;4.22;0.80;;;;;;;14.89;36.32;101888.00;5002736;28;20033;-69
2021/09/19 11:10:46;;;;;;;1.63;0.50;;;;;;;14.97;36.62;101896.44;4996739;28;20030;-69
2021/09/19 11:13:19;;;;;;;2.20;0.60;;;;;;;14.97;35.85;101886.75;5006914;28;20038;-69
2021/09/19 11:16:05;;;;;;;3.90;0.90;;;;;;;15.27;36.39;101885.53;5002987;28;20041;-69
2021/09/19 11:18:33;;;;;;;1.25;0.50;;;;;;;15.52;35.51;101878.25;5003733;28;20513;-69
2021/09/19 11:21:14;;;;;;;1.20;0.68;;;;;;;16.31;33.72;101875.47;5017181;28;20041;-69
2021/09/19 11:23:52;;;;;;;4.20;0.77;;;;;;;17.05;33.11;101861.25;5003453;28;20566;-69
2021/09/19 11:26:28;;;;;;;1.75;0.73;;;;;;;17.27;32.33;101868.91;5002566;28;20424;-69